sensor_id;sensor_type;location;lat;lon;timestamp;P1;durP1;ratioP1;P2;durP2;ratioP2
74624;SDS011;63131;52.298;8.056;2023-06-26T00:01:25;11.32;;;5.93;;
74624;SDS011;63131;52.298;8.056;2023-06-26T00:03:54;10.70;;;6.32;;
74624;SDS011;63131;52.298;8.056;2023-06-26T00:06:19;10.10;;;5.87;;
74624;SDS011;63131;52.298;8.056;2023-06-26T00:08:44;10.47;;;6.03;;
74624;SDS011;63131;52.298;8.056;2023-06-26T00:11:10;10.75;;;6.63;;
74624;SDS011;63131;52.298;8.056;2023-06-26T00:13:35;11.17;;;6.30;;
74624;SDS011;63131;52.298;8.056;2023-06-26T00:16:00;10.07;;;5.97;;
74624;SDS011;63131;52.298;8.056;2023-06-26T00:18:28;10.27;;;6.55;;
74624;SDS011;63131;52.298;8.056;2023-06-26T00:20:53;9.93;;;6.30;;
74624;SDS011;63131;52.298;8.056;2023-06-26T00:23:18;10.60;;;5.97;;
74624;SDS011;63131;52.298;8.056;2023-06-26T00:25:43;11.30;;;6.45;;
74624;SDS011;63131;52.298;8.056;2023-06-26T00:28:09;10.38;;;6.57;;
74624;SDS011;63131;52.298;8.056;2023-06-26T00:30:34;10.55;;;6.38;;
74624;SDS011;63131;52.298;8.056;2023-06-26T00:32:59;12.40;;;6.47;;
74624;SDS011;63131;52.298;8.056;2023-06-26T00:35:24;11.27;;;6.50;;
74624;SDS011;63131;52.298;8.056;2023-06-26T00:37:50;10.20;;;6.23;;
74624;SDS011;63131;52.298;8.056;2023-06-26T00:40:15;11.13;;;5.93;;
74624;SDS011;63131;52.298;8.056;2023-06-26T00:42:40;9.90;;;6.27;;
74624;SDS011;63131;52.298;8.056;2023-06-26T00:45:05;10.03;;;6.47;;
74624;SDS011;63131;52.298;8.056;2023-06-26T00:47:31;11.35;;;6.82;;
74624;SDS011;63131;52.298;8.056;2023-06-26T00:49:56;10.43;;;5.78;;
74624;SDS011;63131;52.298;8.056;2023-06-26T00:52:21;10.52;;;6.18;;
74624;SDS011;63131;52.298;8.056;2023-06-26T00:54:48;11.20;;;6.72;;
74624;SDS011;63131;52.298;8.056;2023-06-26T00:57:14;10.23;;;6.30;;
74624;SDS011;63131;52.298;8.056;2023-06-26T00:59:39;10.37;;;6.00;;
74624;SDS011;63131;52.298;8.056;2023-06-26T01:02:04;10.23;;;6.00;;
74624;SDS011;63131;52.298;8.056;2023-06-26T01:04:29;11.53;;;6.13;;
74624;SDS011;63131;52.298;8.056;2023-06-26T01:06:57;10.98;;;6.80;;
74624;SDS011;63131;52.298;8.056;2023-06-26T01:09:22;11.03;;;6.50;;
74624;SDS011;63131;52.298;8.056;2023-06-26T01:11:48;10.75;;;6.03;;
74624;SDS011;63131;52.298;8.056;2023-06-26T01:14:13;11.07;;;7.03;;
74624;SDS011;63131;52.298;8.056;2023-06-26T01:16:39;10.73;;;6.18;;
74624;SDS011;63131;52.298;8.056;2023-06-26T01:19:08;10.75;;;6.53;;
74624;SDS011;63131;52.298;8.056;2023-06-26T01:21:34;10.45;;;6.45;;
74624;SDS011;63131;52.298;8.056;2023-06-26T01:26:29;10.85;;;6.13;;
74624;SDS011;63131;52.298;8.056;2023-06-26T01:28:55;10.07;;;5.88;;
74624;SDS011;63131;52.298;8.056;2023-06-26T01:31:21;11.07;;;6.78;;
74624;SDS011;63131;52.298;8.056;2023-06-26T01:33:47;10.05;;;6.00;;
74624;SDS011;63131;52.298;8.056;2023-06-26T01:36:12;11.23;;;6.18;;
74624;SDS011;63131;52.298;8.056;2023-06-26T01:38:37;9.60;;;5.90;;
74624;SDS011;63131;52.298;8.056;2023-06-26T01:41:03;10.60;;;6.10;;
74624;SDS011;63131;52.298;8.056;2023-06-26T01:46:16;12.57;;;6.00;;
74624;SDS011;63131;52.298;8.056;2023-06-26T01:51:20;11.55;;;6.68;;
74624;SDS011;63131;52.298;8.056;2023-06-26T01:53:49;11.20;;;6.28;;
74624;SDS011;63131;52.298;8.056;2023-06-26T01:56:17;10.90;;;6.93;;
74624;SDS011;63131;52.298;8.056;2023-06-26T01:58:45;11.18;;;6.55;;
74624;SDS011;63131;52.298;8.056;2023-06-26T02:01:10;11.43;;;6.97;;
74624;SDS011;63131;52.298;8.056;2023-06-26T02:03:36;11.55;;;6.65;;
74624;SDS011;63131;52.298;8.056;2023-06-26T02:06:01;11.77;;;6.43;;
74624;SDS011;63131;52.298;8.056;2023-06-26T02:08:26;14.67;;;6.67;;
74624;SDS011;63131;52.298;8.056;2023-06-26T02:10:51;11.07;;;6.50;;
74624;SDS011;63131;52.298;8.056;2023-06-26T02:13:17;11.13;;;6.63;;
74624;SDS011;63131;52.298;8.056;2023-06-26T02:15:42;11.57;;;6.63;;
74624;SDS011;63131;52.298;8.056;2023-06-26T02:18:07;10.97;;;6.27;;
74624;SDS011;63131;52.298;8.056;2023-06-26T02:20:32;10.07;;;6.23;;
74624;SDS011;63131;52.298;8.056;2023-06-26T02:22:58;10.88;;;6.03;;
74624;SDS011;63131;52.298;8.056;2023-06-26T02:25:23;11.67;;;6.37;;
74624;SDS011;63131;52.298;8.056;2023-06-26T02:27:48;14.63;;;6.40;;
74624;SDS011;63131;52.298;8.056;2023-06-26T02:30:14;11.20;;;6.20;;
74624;SDS011;63131;52.298;8.056;2023-06-26T02:32:39;11.40;;;5.80;;
74624;SDS011;63131;52.298;8.056;2023-06-26T02:35:04;10.63;;;6.30;;
74624;SDS011;63131;52.298;8.056;2023-06-26T02:37:30;10.85;;;6.32;;
74624;SDS011;63131;52.298;8.056;2023-06-26T02:39:55;11.17;;;6.47;;
74624;SDS011;63131;52.298;8.056;2023-06-26T02:42:20;10.83;;;5.93;;
74624;SDS011;63131;52.298;8.056;2023-06-26T02:44:45;9.93;;;5.70;;
74624;SDS011;63131;52.298;8.056;2023-06-26T02:47:10;11.40;;;6.63;;
74624;SDS011;63131;52.298;8.056;2023-06-26T02:49:36;10.77;;;6.10;;
74624;SDS011;63131;52.298;8.056;2023-06-26T02:52:01;11.33;;;6.47;;
74624;SDS011;63131;52.298;8.056;2023-06-26T02:54:26;9.80;;;5.63;;
74624;SDS011;63131;52.298;8.056;2023-06-26T02:56:52;9.43;;;5.95;;
74624;SDS011;63131;52.298;8.056;2023-06-26T02:59:17;13.73;;;6.93;;
74624;SDS011;63131;52.298;8.056;2023-06-26T03:01:42;10.35;;;5.95;;
74624;SDS011;63131;52.298;8.056;2023-06-26T03:04:08;10.23;;;6.03;;
74624;SDS011;63131;52.298;8.056;2023-06-26T03:06:33;10.68;;;5.88;;
74624;SDS011;63131;52.298;8.056;2023-06-26T03:08:58;11.00;;;6.17;;
74624;SDS011;63131;52.298;8.056;2023-06-26T03:11:23;10.63;;;6.50;;
74624;SDS011;63131;52.298;8.056;2023-06-26T03:13:48;12.07;;;6.37;;
74624;SDS011;63131;52.298;8.056;2023-06-26T03:16:14;10.27;;;5.97;;
74624;SDS011;63131;52.298;8.056;2023-06-26T03:18:39;11.23;;;6.83;;
74624;SDS011;63131;52.298;8.056;2023-06-26T03:21:04;10.83;;;6.03;;
74624;SDS011;63131;52.298;8.056;2023-06-26T03:23:29;11.18;;;6.50;;
74624;SDS011;63131;52.298;8.056;2023-06-26T03:25:54;11.33;;;6.40;;
74624;SDS011;63131;52.298;8.056;2023-06-26T03:28:20;11.60;;;6.63;;
74624;SDS011;63131;52.298;8.056;2023-06-26T03:30:45;11.07;;;6.30;;
74624;SDS011;63131;52.298;8.056;2023-06-26T03:33:10;10.10;;;6.45;;
74624;SDS011;63131;52.298;8.056;2023-06-26T03:35:35;10.27;;;5.90;;
74624;SDS011;63131;52.298;8.056;2023-06-26T03:38:01;10.93;;;6.07;;
74624;SDS011;63131;52.298;8.056;2023-06-26T03:40:26;11.80;;;7.15;;
74624;SDS011;63131;52.298;8.056;2023-06-26T03:42:52;10.93;;;6.35;;
74624;SDS011;63131;52.298;8.056;2023-06-26T03:45:17;11.60;;;7.03;;
74624;SDS011;63131;52.298;8.056;2023-06-26T03:47:43;10.90;;;6.65;;
74624;SDS011;63131;52.298;8.056;2023-06-26T03:50:09;14.10;;;6.32;;
74624;SDS011;63131;52.298;8.056;2023-06-26T03:52:34;10.80;;;5.72;;
74624;SDS011;63131;52.298;8.056;2023-06-26T03:54:59;10.00;;;6.13;;
74624;SDS011;63131;52.298;8.056;2023-06-26T03:57:25;11.07;;;6.63;;
74624;SDS011;63131;52.298;8.056;2023-06-26T03:59:51;10.55;;;6.50;;
74624;SDS011;63131;52.298;8.056;2023-06-26T04:02:17;10.38;;;5.97;;
74624;SDS011;63131;52.298;8.056;2023-06-26T04:04:42;12.87;;;6.30;;
74624;SDS011;63131;52.298;8.056;2023-06-26T04:07:07;10.47;;;5.90;;
74624;SDS011;63131;52.298;8.056;2023-06-26T04:09:32;12.13;;;6.43;;
74624;SDS011;63131;52.298;8.056;2023-06-26T04:11:58;11.17;;;6.37;;
74624;SDS011;63131;52.298;8.056;2023-06-26T04:14:23;10.97;;;6.13;;
74624;SDS011;63131;52.298;8.056;2023-06-26T04:16:48;10.27;;;5.40;;
74624;SDS011;63131;52.298;8.056;2023-06-26T04:19:13;10.70;;;5.90;;
74624;SDS011;63131;52.298;8.056;2023-06-26T04:21:38;10.03;;;5.73;;
74624;SDS011;63131;52.298;8.056;2023-06-26T04:24:04;10.52;;;6.15;;
74624;SDS011;63131;52.298;8.056;2023-06-26T04:26:29;9.80;;;5.35;;
74624;SDS011;63131;52.298;8.056;2023-06-26T04:28:55;10.40;;;6.00;;
74624;SDS011;63131;52.298;8.056;2023-06-26T04:31:20;11.47;;;5.50;;
74624;SDS011;63131;52.298;8.056;2023-06-26T04:33:45;10.63;;;6.20;;
74624;SDS011;63131;52.298;8.056;2023-06-26T04:36:15;11.43;;;6.00;;
74624;SDS011;63131;52.298;8.056;2023-06-26T04:38:41;11.90;;;6.05;;
74624;SDS011;63131;52.298;8.056;2023-06-26T04:41:06;10.03;;;5.67;;
74624;SDS011;63131;52.298;8.056;2023-06-26T04:43:31;10.83;;;4.87;;
74624;SDS011;63131;52.298;8.056;2023-06-26T04:45:57;9.23;;;5.47;;
74624;SDS011;63131;52.298;8.056;2023-06-26T04:48:22;9.53;;;4.90;;
74624;SDS011;63131;52.298;8.056;2023-06-26T04:50:47;9.43;;;4.77;;
74624;SDS011;63131;52.298;8.056;2023-06-26T04:53:19;10.32;;;5.25;;
74624;SDS011;63131;52.298;8.056;2023-06-26T04:55:44;10.82;;;5.55;;
74624;SDS011;63131;52.298;8.056;2023-06-26T04:58:10;10.63;;;5.47;;
74624;SDS011;63131;52.298;8.056;2023-06-26T05:00:35;12.40;;;5.13;;
74624;SDS011;63131;52.298;8.056;2023-06-26T05:03:00;8.68;;;4.55;;
74624;SDS011;63131;52.298;8.056;2023-06-26T05:05:26;9.60;;;4.82;;
74624;SDS011;63131;52.298;8.056;2023-06-26T05:07:53;9.68;;;5.00;;
74624;SDS011;63131;52.298;8.056;2023-06-26T05:10:18;10.57;;;5.78;;
74624;SDS011;63131;52.298;8.056;2023-06-26T05:12:43;8.93;;;4.40;;
74624;SDS011;63131;52.298;8.056;2023-06-26T05:15:09;10.37;;;5.37;;
74624;SDS011;63131;52.298;8.056;2023-06-26T05:17:34;10.23;;;5.27;;
74624;SDS011;63131;52.298;8.056;2023-06-26T05:19:59;11.67;;;5.47;;
74624;SDS011;63131;52.298;8.056;2023-06-26T05:22:25;13.50;;;5.83;;
74624;SDS011;63131;52.298;8.056;2023-06-26T05:24:50;12.25;;;6.40;;
74624;SDS011;63131;52.298;8.056;2023-06-26T05:27:19;10.50;;;5.75;;
74624;SDS011;63131;52.298;8.056;2023-06-26T05:29:46;10.90;;;5.65;;
74624;SDS011;63131;52.298;8.056;2023-06-26T05:32:12;10.45;;;5.93;;
74624;SDS011;63131;52.298;8.056;2023-06-26T05:34:39;10.80;;;5.68;;
74624;SDS011;63131;52.298;8.056;2023-06-26T05:37:05;10.63;;;5.47;;
74624;SDS011;63131;52.298;8.056;2023-06-26T05:39:30;10.95;;;6.25;;
74624;SDS011;63131;52.298;8.056;2023-06-26T05:41:55;12.30;;;6.82;;
74624;SDS011;63131;52.298;8.056;2023-06-26T05:44:21;11.27;;;5.97;;
74624;SDS011;63131;52.298;8.056;2023-06-26T05:46:46;10.23;;;5.70;;
74624;SDS011;63131;52.298;8.056;2023-06-26T05:49:11;10.87;;;6.03;;
74624;SDS011;63131;52.298;8.056;2023-06-26T05:51:37;18.27;;;6.53;;
74624;SDS011;63131;52.298;8.056;2023-06-26T05:54:02;11.68;;;6.75;;
74624;SDS011;63131;52.298;8.056;2023-06-26T05:56:28;11.35;;;6.18;;
74624;SDS011;63131;52.298;8.056;2023-06-26T05:58:53;11.25;;;6.40;;
74624;SDS011;63131;52.298;8.056;2023-06-26T06:01:19;12.38;;;6.25;;
74624;SDS011;63131;52.298;8.056;2023-06-26T06:03:44;14.18;;;7.63;;
74624;SDS011;63131;52.298;8.056;2023-06-26T06:06:10;13.17;;;6.70;;
74624;SDS011;63131;52.298;8.056;2023-06-26T06:08:35;11.77;;;6.75;;
74624;SDS011;63131;52.298;8.056;2023-06-26T06:11:01;11.30;;;6.97;;
74624;SDS011;63131;52.298;8.056;2023-06-26T06:13:26;13.05;;;7.20;;
74624;SDS011;63131;52.298;8.056;2023-06-26T06:15:52;13.37;;;7.50;;
74624;SDS011;63131;52.298;8.056;2023-06-26T06:18:17;12.10;;;7.33;;
74624;SDS011;63131;52.298;8.056;2023-06-26T06:20:42;10.83;;;6.87;;
74624;SDS011;63131;52.298;8.056;2023-06-26T06:23:07;14.03;;;8.27;;
74624;SDS011;63131;52.298;8.056;2023-06-26T06:25:32;14.20;;;7.40;;
74624;SDS011;63131;52.298;8.056;2023-06-26T06:27:58;13.33;;;8.00;;
74624;SDS011;63131;52.298;8.056;2023-06-26T06:30:23;12.17;;;7.70;;
74624;SDS011;63131;52.298;8.056;2023-06-26T06:32:48;13.27;;;7.27;;
74624;SDS011;63131;52.298;8.056;2023-06-26T06:35:17;14.18;;;7.63;;
74624;SDS011;63131;52.298;8.056;2023-06-26T06:37:42;14.00;;;8.13;;
74624;SDS011;63131;52.298;8.056;2023-06-26T06:40:08;12.90;;;7.90;;
74624;SDS011;63131;52.298;8.056;2023-06-26T06:42:34;12.52;;;7.22;;
74624;SDS011;63131;52.298;8.056;2023-06-26T06:45:01;13.70;;;7.88;;
74624;SDS011;63131;52.298;8.056;2023-06-26T06:47:26;13.10;;;7.75;;
74624;SDS011;63131;52.298;8.056;2023-06-26T06:49:51;13.83;;;7.90;;
74624;SDS011;63131;52.298;8.056;2023-06-26T06:52:17;14.20;;;7.77;;
74624;SDS011;63131;52.298;8.056;2023-06-26T06:54:51;12.40;;;7.47;;
74624;SDS011;63131;52.298;8.056;2023-06-26T06:57:17;12.65;;;7.65;;
74624;SDS011;63131;52.298;8.056;2023-06-26T06:59:43;14.50;;;7.63;;
74624;SDS011;63131;52.298;8.056;2023-06-26T07:02:08;13.63;;;7.57;;
74624;SDS011;63131;52.298;8.056;2023-06-26T07:04:33;12.60;;;7.00;;
74624;SDS011;63131;52.298;8.056;2023-06-26T07:06:58;11.90;;;7.67;;
74624;SDS011;63131;52.298;8.056;2023-06-26T07:09:23;12.23;;;6.83;;
74624;SDS011;63131;52.298;8.056;2023-06-26T07:11:49;13.30;;;7.43;;
74624;SDS011;63131;52.298;8.056;2023-06-26T07:14:14;12.20;;;7.03;;
74624;SDS011;63131;52.298;8.056;2023-06-26T07:16:39;10.87;;;6.53;;
74624;SDS011;63131;52.298;8.056;2023-06-26T07:19:04;11.40;;;6.27;;
74624;SDS011;63131;52.298;8.056;2023-06-26T07:21:29;11.30;;;6.47;;
74624;SDS011;63131;52.298;8.056;2023-06-26T07:23:54;11.10;;;6.03;;
74624;SDS011;63131;52.298;8.056;2023-06-26T07:26:20;11.23;;;6.00;;
74624;SDS011;63131;52.298;8.056;2023-06-26T07:28:47;13.68;;;5.70;;
74624;SDS011;63131;52.298;8.056;2023-06-26T07:31:13;11.48;;;5.65;;
74624;SDS011;63131;52.298;8.056;2023-06-26T07:33:38;11.27;;;6.30;;
74624;SDS011;63131;52.298;8.056;2023-06-26T07:36:04;12.03;;;5.87;;
74624;SDS011;63131;52.298;8.056;2023-06-26T07:38:29;10.88;;;5.30;;
74624;SDS011;63131;52.298;8.056;2023-06-26T07:40:54;12.10;;;5.63;;
74624;SDS011;63131;52.298;8.056;2023-06-26T07:43:20;12.57;;;6.07;;
74624;SDS011;63131;52.298;8.056;2023-06-26T07:45:45;16.70;;;5.90;;
74624;SDS011;63131;52.298;8.056;2023-06-26T07:48:10;10.63;;;5.90;;
74624;SDS011;63131;52.298;8.056;2023-06-26T07:50:35;9.97;;;5.70;;
74624;SDS011;63131;52.298;8.056;2023-06-26T07:53:00;12.27;;;5.30;;
74624;SDS011;63131;52.298;8.056;2023-06-26T07:55:33;12.37;;;5.50;;
74624;SDS011;63131;52.298;8.056;2023-06-26T07:57:59;11.27;;;5.30;;
74624;SDS011;63131;52.298;8.056;2023-06-26T08:00:26;11.27;;;5.18;;
74624;SDS011;63131;52.298;8.056;2023-06-26T08:02:51;15.13;;;6.03;;
74624;SDS011;63131;52.298;8.056;2023-06-26T08:05:16;10.57;;;5.23;;
74624;SDS011;63131;52.298;8.056;2023-06-26T08:07:41;12.20;;;5.33;;
74624;SDS011;63131;52.298;8.056;2023-06-26T08:10:07;12.27;;;5.30;;
74624;SDS011;63131;52.298;8.056;2023-06-26T08:12:32;9.77;;;4.93;;
74624;SDS011;63131;52.298;8.056;2023-06-26T08:14:57;11.93;;;5.80;;
74624;SDS011;63131;52.298;8.056;2023-06-26T08:17:22;10.73;;;4.97;;
74624;SDS011;63131;52.298;8.056;2023-06-26T08:19:47;9.97;;;4.97;;
74624;SDS011;63131;52.298;8.056;2023-06-26T08:22:13;11.53;;;4.40;;
74624;SDS011;63131;52.298;8.056;2023-06-26T08:24:38;9.47;;;4.60;;
74624;SDS011;63131;52.298;8.056;2023-06-26T08:27:03;12.20;;;4.73;;
74624;SDS011;63131;52.298;8.056;2023-06-26T08:29:28;9.93;;;4.13;;
74624;SDS011;63131;52.298;8.056;2023-06-26T08:31:54;8.73;;;3.70;;
74624;SDS011;63131;52.298;8.056;2023-06-26T08:34:19;11.37;;;5.07;;
74624;SDS011;63131;52.298;8.056;2023-06-26T08:36:44;11.83;;;4.07;;
74624;SDS011;63131;52.298;8.056;2023-06-26T08:39:09;12.32;;;4.10;;
74624;SDS011;63131;52.298;8.056;2023-06-26T08:41:35;10.37;;;4.63;;
74624;SDS011;63131;52.298;8.056;2023-06-26T08:44:01;12.10;;;4.97;;
74624;SDS011;63131;52.298;8.056;2023-06-26T08:46:26;10.50;;;4.90;;
74624;SDS011;63131;52.298;8.056;2023-06-26T08:48:57;9.63;;;5.03;;
74624;SDS011;63131;52.298;8.056;2023-06-26T08:51:24;12.05;;;5.00;;
74624;SDS011;63131;52.298;8.056;2023-06-26T08:54:00;12.07;;;4.45;;
74624;SDS011;63131;52.298;8.056;2023-06-26T08:56:31;9.88;;;5.10;;
74624;SDS011;63131;52.298;8.056;2023-06-26T08:58:56;12.65;;;5.00;;
74624;SDS011;63131;52.298;8.056;2023-06-26T09:01:22;10.70;;;5.22;;
74624;SDS011;63131;52.298;8.056;2023-06-26T09:03:48;8.65;;;4.50;;
74624;SDS011;63131;52.298;8.056;2023-06-26T09:06:13;9.00;;;3.83;;
74624;SDS011;63131;52.298;8.056;2023-06-26T09:08:38;10.77;;;5.33;;
74624;SDS011;63131;52.298;8.056;2023-06-26T09:11:04;10.47;;;3.73;;
74624;SDS011;63131;52.298;8.056;2023-06-26T09:13:29;8.33;;;4.07;;
74624;SDS011;63131;52.298;8.056;2023-06-26T09:15:55;8.98;;;3.88;;
74624;SDS011;63131;52.298;8.056;2023-06-26T09:18:20;11.70;;;4.33;;
74624;SDS011;63131;52.298;8.056;2023-06-26T09:20:55;8.35;;;3.13;;
74624;SDS011;63131;52.298;8.056;2023-06-26T09:23:21;9.38;;;3.45;;
74624;SDS011;63131;52.298;8.056;2023-06-26T09:25:46;9.57;;;3.60;;
74624;SDS011;63131;52.298;8.056;2023-06-26T09:28:12;10.57;;;4.20;;
74624;SDS011;63131;52.298;8.056;2023-06-26T09:30:37;9.02;;;3.50;;
74624;SDS011;63131;52.298;8.056;2023-06-26T09:33:15;11.23;;;4.50;;
74624;SDS011;63131;52.298;8.056;2023-06-26T09:35:41;10.13;;;4.05;;
74624;SDS011;63131;52.298;8.056;2023-06-26T09:38:06;14.00;;;3.45;;
74624;SDS011;63131;52.298;8.056;2023-06-26T09:40:32;8.97;;;3.67;;
74624;SDS011;63131;52.298;8.056;2023-06-26T09:43:03;7.45;;;2.35;;
74624;SDS011;63131;52.298;8.056;2023-06-26T09:45:28;6.60;;;2.13;;
74624;SDS011;63131;52.298;8.056;2023-06-26T09:47:53;7.53;;;2.90;;
74624;SDS011;63131;52.298;8.056;2023-06-26T09:50:22;7.63;;;2.45;;
74624;SDS011;63131;52.298;8.056;2023-06-26T09:52:49;8.18;;;2.20;;
74624;SDS011;63131;52.298;8.056;2023-06-26T09:55:15;7.93;;;2.60;;
74624;SDS011;63131;52.298;8.056;2023-06-26T09:57:40;7.00;;;2.27;;
74624;SDS011;63131;52.298;8.056;2023-06-26T10:00:07;7.45;;;2.53;;
74624;SDS011;63131;52.298;8.056;2023-06-26T10:02:34;7.05;;;2.45;;
74624;SDS011;63131;52.298;8.056;2023-06-26T10:04:59;6.97;;;2.37;;
74624;SDS011;63131;52.298;8.056;2023-06-26T10:07:24;7.30;;;2.70;;
74624;SDS011;63131;52.298;8.056;2023-06-26T10:09:50;7.30;;;2.53;;
74624;SDS011;63131;52.298;8.056;2023-06-26T10:14:41;5.80;;;1.90;;
74624;SDS011;63131;52.298;8.056;2023-06-26T10:17:08;5.78;;;1.95;;
74624;SDS011;63131;52.298;8.056;2023-06-26T10:19:34;7.47;;;2.15;;
74624;SDS011;63131;52.298;8.056;2023-06-26T10:22:00;5.93;;;2.28;;
74624;SDS011;63131;52.298;8.056;2023-06-26T10:24:26;6.15;;;2.03;;
74624;SDS011;63131;52.298;8.056;2023-06-26T10:26:55;8.48;;;2.92;;
74624;SDS011;63131;52.298;8.056;2023-06-26T10:29:22;6.45;;;1.88;;
74624;SDS011;63131;52.298;8.056;2023-06-26T10:31:50;6.80;;;2.20;;
74624;SDS011;63131;52.298;8.056;2023-06-26T10:34:16;6.88;;;2.00;;
74624;SDS011;63131;52.298;8.056;2023-06-26T10:36:41;7.97;;;1.80;;
74624;SDS011;63131;52.298;8.056;2023-06-26T10:39:07;6.30;;;2.20;;
74624;SDS011;63131;52.298;8.056;2023-06-26T10:41:39;6.60;;;1.70;;
74624;SDS011;63131;52.298;8.056;2023-06-26T10:44:08;6.90;;;2.33;;
74624;SDS011;63131;52.298;8.056;2023-06-26T10:46:55;6.03;;;2.33;;
74624;SDS011;63131;52.298;8.056;2023-06-26T10:49:20;5.38;;;1.63;;
74624;SDS011;63131;52.298;8.056;2023-06-26T10:51:46;5.13;;;1.98;;
74624;SDS011;63131;52.298;8.056;2023-06-26T10:54:14;6.07;;;1.90;;
74624;SDS011;63131;52.298;8.056;2023-06-26T10:56:43;6.78;;;1.80;;
74624;SDS011;63131;52.298;8.056;2023-06-26T11:01:41;6.07;;;1.70;;
74624;SDS011;63131;52.298;8.056;2023-06-26T11:04:07;5.82;;;1.70;;
74624;SDS011;63131;52.298;8.056;2023-06-26T11:06:33;4.97;;;1.60;;
74624;SDS011;63131;52.298;8.056;2023-06-26T11:14:15;7.32;;;2.03;;
74624;SDS011;63131;52.298;8.056;2023-06-26T11:16:41;5.95;;;1.98;;
74624;SDS011;63131;52.298;8.056;2023-06-26T11:19:07;5.10;;;1.77;;
74624;SDS011;63131;52.298;8.056;2023-06-26T11:21:32;7.40;;;2.10;;
74624;SDS011;63131;52.298;8.056;2023-06-26T11:23:57;7.93;;;2.30;;
74624;SDS011;63131;52.298;8.056;2023-06-26T11:26:25;7.03;;;1.90;;
74624;SDS011;63131;52.298;8.056;2023-06-26T11:28:53;5.95;;;1.80;;
74624;SDS011;63131;52.298;8.056;2023-06-26T11:33:55;6.50;;;2.33;;
74624;SDS011;63131;52.298;8.056;2023-06-26T11:36:23;5.82;;;1.52;;
74624;SDS011;63131;52.298;8.056;2023-06-26T11:38:52;4.80;;;1.60;;
74624;SDS011;63131;52.298;8.056;2023-06-26T11:41:17;6.07;;;1.80;;
74624;SDS011;63131;52.298;8.056;2023-06-26T11:43:42;5.03;;;1.67;;
74624;SDS011;63131;52.298;8.056;2023-06-26T11:46:07;5.47;;;1.87;;
74624;SDS011;63131;52.298;8.056;2023-06-26T11:48:33;6.67;;;1.90;;
74624;SDS011;63131;52.298;8.056;2023-06-26T11:50:58;7.10;;;2.40;;
74624;SDS011;63131;52.298;8.056;2023-06-26T11:53:23;6.95;;;2.03;;
74624;SDS011;63131;52.298;8.056;2023-06-26T11:55:49;6.17;;;2.00;;
74624;SDS011;63131;52.298;8.056;2023-06-26T11:58:17;5.25;;;1.67;;
74624;SDS011;63131;52.298;8.056;2023-06-26T12:00:42;5.63;;;2.00;;
74624;SDS011;63131;52.298;8.056;2023-06-26T12:03:08;5.20;;;1.50;;
74624;SDS011;63131;52.298;8.056;2023-06-26T12:05:33;6.60;;;2.10;;
74624;SDS011;63131;52.298;8.056;2023-06-26T12:07:59;5.80;;;2.17;;
74624;SDS011;63131;52.298;8.056;2023-06-26T12:10:24;6.22;;;1.85;;
74624;SDS011;63131;52.298;8.056;2023-06-26T12:12:50;7.18;;;1.90;;
74624;SDS011;63131;52.298;8.056;2023-06-26T12:15:15;4.32;;;1.83;;
74624;SDS011;63131;52.298;8.056;2023-06-26T12:17:41;6.63;;;1.90;;
74624;SDS011;63131;52.298;8.056;2023-06-26T12:20:17;6.43;;;1.75;;
74624;SDS011;63131;52.298;8.056;2023-06-26T12:22:43;7.22;;;2.00;;
74624;SDS011;63131;52.298;8.056;2023-06-26T12:25:10;7.75;;;1.83;;
74624;SDS011;63131;52.298;8.056;2023-06-26T12:27:35;6.37;;;1.80;;
74624;SDS011;63131;52.298;8.056;2023-06-26T12:30:02;6.20;;;2.10;;
74624;SDS011;63131;52.298;8.056;2023-06-26T12:32:28;5.60;;;1.77;;
74624;SDS011;63131;52.298;8.056;2023-06-26T12:34:53;6.40;;;1.77;;
74624;SDS011;63131;52.298;8.056;2023-06-26T12:37:21;7.00;;;2.08;;
74624;SDS011;63131;52.298;8.056;2023-06-26T12:42:15;5.57;;;1.90;;
74624;SDS011;63131;52.298;8.056;2023-06-26T12:44:40;6.53;;;1.90;;
74624;SDS011;63131;52.298;8.056;2023-06-26T12:47:06;6.03;;;2.10;;
74624;SDS011;63131;52.298;8.056;2023-06-26T12:49:36;6.50;;;2.20;;
74624;SDS011;63131;52.298;8.056;2023-06-26T12:52:02;7.43;;;1.80;;
74624;SDS011;63131;52.298;8.056;2023-06-26T12:54:28;5.53;;;2.08;;
74624;SDS011;63131;52.298;8.056;2023-06-26T12:56:53;6.80;;;2.50;;
74624;SDS011;63131;52.298;8.056;2023-06-26T12:59:18;7.07;;;1.87;;
74624;SDS011;63131;52.298;8.056;2023-06-26T13:01:43;6.80;;;2.20;;
74624;SDS011;63131;52.298;8.056;2023-06-26T13:04:08;7.53;;;2.60;;
74624;SDS011;63131;52.298;8.056;2023-06-26T13:06:35;8.93;;;2.57;;
74624;SDS011;63131;52.298;8.056;2023-06-26T13:09:00;5.53;;;2.03;;
74624;SDS011;63131;52.298;8.056;2023-06-26T13:11:29;6.28;;;2.17;;
74624;SDS011;63131;52.298;8.056;2023-06-26T13:13:54;6.57;;;1.77;;
74624;SDS011;63131;52.298;8.056;2023-06-26T13:16:19;9.47;;;2.40;;
74624;SDS011;63131;52.298;8.056;2023-06-26T13:18:44;8.60;;;2.13;;
74624;SDS011;63131;52.298;8.056;2023-06-26T13:21:10;5.38;;;1.80;;
74624;SDS011;63131;52.298;8.056;2023-06-26T13:23:35;6.20;;;1.77;;
74624;SDS011;63131;52.298;8.056;2023-06-26T13:28:50;4.82;;;1.67;;
74624;SDS011;63131;52.298;8.056;2023-06-26T13:31:16;4.45;;;1.60;;
74624;SDS011;63131;52.298;8.056;2023-06-26T13:33:41;7.85;;;1.83;;
74624;SDS011;63131;52.298;8.056;2023-06-26T13:36:06;5.90;;;1.73;;
74624;SDS011;63131;52.298;8.056;2023-06-26T13:38:34;13.43;;;1.90;;
74624;SDS011;63131;52.298;8.056;2023-06-26T13:41:00;5.70;;;1.45;;
74624;SDS011;63131;52.298;8.056;2023-06-26T13:43:25;4.20;;;1.50;;
74624;SDS011;63131;52.298;8.056;2023-06-26T13:45:51;8.30;;;1.83;;
74624;SDS011;63131;52.298;8.056;2023-06-26T13:48:16;5.40;;;1.67;;
74624;SDS011;63131;52.298;8.056;2023-06-26T13:50:41;8.30;;;1.70;;
74624;SDS011;63131;52.298;8.056;2023-06-26T13:53:07;5.37;;;1.50;;
74624;SDS011;63131;52.298;8.056;2023-06-26T13:55:32;7.47;;;1.50;;
74624;SDS011;63131;52.298;8.056;2023-06-26T13:57:58;7.38;;;1.80;;
74624;SDS011;63131;52.298;8.056;2023-06-26T14:00:23;9.50;;;1.90;;
74624;SDS011;63131;52.298;8.056;2023-06-26T14:02:49;4.33;;;1.30;;
74624;SDS011;63131;52.298;8.056;2023-06-26T14:05:14;4.47;;;1.70;;
74624;SDS011;63131;52.298;8.056;2023-06-26T14:07:39;3.85;;;1.45;;
74624;SDS011;63131;52.298;8.056;2023-06-26T14:10:05;6.72;;;1.40;;
74624;SDS011;63131;52.298;8.056;2023-06-26T14:12:31;6.70;;;1.48;;
74624;SDS011;63131;52.298;8.056;2023-06-26T14:14:56;4.00;;;1.40;;
74624;SDS011;63131;52.298;8.056;2023-06-26T14:17:21;7.33;;;1.90;;
74624;SDS011;63131;52.298;8.056;2023-06-26T14:19:49;5.35;;;1.55;;
74624;SDS011;63131;52.298;8.056;2023-06-26T14:22:14;3.45;;;1.25;;
74624;SDS011;63131;52.298;8.056;2023-06-26T14:24:39;6.00;;;1.40;;
74624;SDS011;63131;52.298;8.056;2023-06-26T14:27:05;5.17;;;1.43;;
74624;SDS011;63131;52.298;8.056;2023-06-26T14:29:30;4.07;;;1.30;;
74624;SDS011;63131;52.298;8.056;2023-06-26T14:31:55;4.80;;;1.37;;
74624;SDS011;63131;52.298;8.056;2023-06-26T14:34:20;5.17;;;1.40;;
74624;SDS011;63131;52.298;8.056;2023-06-26T14:36:45;6.63;;;1.53;;
74624;SDS011;63131;52.298;8.056;2023-06-26T14:39:11;5.10;;;1.40;;
74624;SDS011;63131;52.298;8.056;2023-06-26T14:41:36;7.13;;;1.80;;
74624;SDS011;63131;52.298;8.056;2023-06-26T14:44:01;4.20;;;1.40;;
74624;SDS011;63131;52.298;8.056;2023-06-26T14:46:27;6.50;;;1.40;;
74624;SDS011;63131;52.298;8.056;2023-06-26T14:48:52;4.00;;;1.30;;
74624;SDS011;63131;52.298;8.056;2023-06-26T14:51:17;4.97;;;1.23;;
74624;SDS011;63131;52.298;8.056;2023-06-26T14:53:42;5.43;;;1.40;;
74624;SDS011;63131;52.298;8.056;2023-06-26T14:56:07;4.57;;;1.13;;
74624;SDS011;63131;52.298;8.056;2023-06-26T14:58:33;3.80;;;1.20;;